RO-0004 weather

Ineu "King's Land" field
Bistriţa-Năsăud, Romania

Public forecast

Using degrees Celsius for public forecast. Weather courtesy of forecast.io.

METAR (pilot weather report)

Closest report is Oradea International Airport, 8.7 nm (16.1 km) WSW. Retrieved 2019/08/22 17:30 UTC (22 minutes ago):

LROD 221730Z 01015KT CAVOK 27/17 Q1021

TAF (pilot weather forecast)

Forecast is more than 12 hours old.

Closest forecast is Oradea International Airport, 8.7 nm (16.1 km) WSW. Retrieved 2010/08/31 20:30 UTC (9 years ago):

TAF LROD 312030Z 3121/0203 CNL